createdAt,value
2023-02-26T00:04:23.057Z,101437.03
2023-02-26T00:09:27.217Z,101433.97
2023-02-26T00:14:30.511Z,101375.69
2023-02-26T00:19:33.946Z,101372.06
2023-02-26T00:24:38.039Z,101403.44
2023-02-26T00:29:41.392Z,101424.44
2023-02-26T00:34:47.161Z,101426.47
2023-02-26T00:40:00.713Z,101446.28
2023-02-26T00:45:04.938Z,100896.88
2023-02-26T00:50:17.325Z,100973.66
2023-02-26T00:55:22.418Z,101414.78
2023-02-26T01:00:25.498Z,101410.38
2023-02-26T01:05:29.065Z,101392.41
2023-02-26T01:10:34.421Z,101533.41
2023-02-26T01:15:38.254Z,101453.94
2023-02-26T01:20:49.295Z,101511.47
2023-02-26T01:25:57.878Z,101429.03
2023-02-26T01:31:05.329Z,101488.22
2023-02-26T01:36:10.585Z,101330.59
2023-02-26T01:41:30.508Z,101525.78
2023-02-26T01:46:38.343Z,101523.81
2023-02-26T01:51:47.701Z,101524.84
2023-02-26T01:56:57.433Z,101519.25
2023-02-26T02:02:03.912Z,101530.06
2023-02-26T02:07:09.128Z,101467.34
2023-02-26T02:12:27.945Z,101479.75
2023-02-26T02:17:39.982Z,101409.59
2023-02-26T02:23:10.405Z,101510.63
2023-02-26T02:28:31.451Z,101558.09
2023-02-26T02:33:43.535Z,101577.91
2023-02-26T02:38:52.301Z,101456.34
2023-02-26T02:44:03.120Z,101537.09
2023-02-26T02:49:10.849Z,101525.78
2023-02-26T02:54:21.175Z,101545.44
2023-02-26T02:59:29.721Z,101564.81
2023-02-26T03:04:33.938Z,101474.66
2023-02-26T03:09:39.284Z,101600.63
2023-02-26T03:14:43.746Z,101571.38
2023-02-26T03:20:01.185Z,101581.69
2023-02-26T03:25:10.713Z,101625.41
2023-02-26T03:30:19.284Z,101544.13
2023-02-26T03:35:35.636Z,101636.84
2023-02-26T03:40:47.065Z,101646.59
2023-02-26T03:45:55.663Z,101533.66
2023-02-26T03:51:06.071Z,101651.34
2023-02-26T03:56:40.274Z,101659.25
2023-02-26T04:01:53.343Z,101649.22
2023-02-26T04:07:01.150Z,101674.31
2023-02-26T04:12:04.750Z,101685.75
2023-02-26T04:17:08.379Z,101663.56
2023-02-26T04:22:13.160Z,101524.59
2023-02-26T04:27:16.040Z,101696.13
2023-02-26T04:32:19.620Z,101699.75
2023-02-26T04:37:25.475Z,101710.22
2023-02-26T04:42:28.419Z,101191.28
2023-02-26T04:47:31.288Z,101722.66
2023-02-26T04:52:35.347Z,101257.50
2023-02-26T04:57:38.590Z,101688.31
2023-02-26T05:02:43.820Z,101738.41
2023-02-26T05:07:47.992Z,101700.75
2023-02-26T05:12:55.770Z,101760.53
2023-02-26T05:17:58.711Z,101648.63
2023-02-26T05:23:02.906Z,101742.78
2023-02-26T05:28:05.980Z,101724.94
2023-02-26T05:33:09.110Z,101780.19
2023-02-26T05:38:13.615Z,101785.88
2023-02-26T05:43:16.357Z,101732.69
2023-02-26T05:48:19.202Z,101795.06
2023-02-26T05:53:23.634Z,101792.53
2023-02-26T05:58:26.332Z,101759.06
2023-02-26T06:03:29.180Z,101817.91
2023-02-26T06:08:33.705Z,101574.59
2023-02-26T06:13:36.850Z,101826.50
2023-02-26T06:18:39.953Z,101825.66
2023-02-26T06:23:43.968Z,101843.91
2023-02-26T06:28:46.625Z,101813.47
2023-02-26T06:33:49.407Z,101877.13
2023-02-26T06:38:53.490Z,101757.94
2023-02-26T06:43:56.345Z,101888.72
2023-02-26T06:49:01.020Z,101895.34
2023-02-26T06:54:05.883Z,101905.31
2023-02-26T06:59:11.456Z,101835.28
2023-02-26T07:04:14.257Z,101882.00
2023-02-26T07:09:21.122Z,101867.47
2023-02-26T07:14:23.731Z,101940.66
2023-02-26T07:19:26.520Z,101919.94
2023-02-26T07:24:33.334Z,101951.38
2023-02-26T07:29:38.408Z,101957.41
2023-02-26T07:34:47.173Z,101864.09
2023-02-26T07:39:56.560Z,101915.97
2023-02-26T07:45:00.789Z,101944.53
2023-02-26T07:50:03.630Z,101827.66
2023-02-26T07:55:13.834Z,101954.28
2023-02-26T08:00:20.719Z,101987.25
2023-02-26T08:05:23.906Z,101892.13
2023-02-26T08:10:36.881Z,101958.75
2023-02-26T08:15:41.775Z,101980.22
2023-02-26T08:20:58.342Z,102004.38
2023-02-26T08:26:12.343Z,101783.56
2023-02-26T08:31:15.690Z,101881.97
2023-02-26T08:36:22.212Z,101973.41
2023-02-26T08:41:27.634Z,102040.84
2023-02-26T08:46:32.620Z,102006.28
2023-02-26T08:51:35.388Z,102052.19
2023-02-26T08:56:41.763Z,102040.78
2023-02-26T09:01:44.411Z,102062.38
2023-02-26T09:06:47.167Z,102039.97
2023-02-26T09:11:51.351Z,102045.88
2023-02-26T09:16:53.999Z,102046.47
2023-02-26T09:21:56.681Z,102037.13
2023-02-26T09:27:03.469Z,102084.63
2023-02-26T09:32:11.931Z,102106.84
2023-02-26T09:37:14.886Z,102054.03
2023-02-26T09:42:29.646Z,102115.19
2023-02-26T09:47:42.914Z,102120.50
2023-02-26T09:52:53.285Z,102116.84
2023-02-26T09:58:01.706Z,102127.25
2023-02-26T10:03:17.890Z,102133.16
2023-02-26T10:08:22.635Z,102092.38
2023-02-26T10:13:49.009Z,102153.03
2023-02-26T10:19:11.238Z,102090.50
2023-02-26T10:24:17.760Z,102051.47
2023-02-26T10:29:28.212Z,102161.25
2023-02-26T10:34:36.993Z,102157.06
2023-02-26T10:39:45.637Z,102169.28
2023-02-26T10:44:57.833Z,102090.00
2023-02-26T10:50:04.130Z,102172.38
2023-02-26T10:55:22.665Z,102181.72
2023-02-26T11:00:26.928Z,102164.34
2023-02-26T11:05:35.306Z,102142.59
2023-02-26T11:10:43.195Z,102166.53
2023-02-26T11:15:54.323Z,102141.34
2023-02-26T11:21:01.210Z,102160.16
2023-02-26T11:26:07.562Z,102184.94
2023-02-26T11:31:16.069Z,102107.00
2023-02-26T11:36:20.978Z,102173.91
2023-02-26T11:41:28.963Z,102195.91
2023-02-26T11:46:42.661Z,102191.56
2023-02-26T11:51:49.284Z,102027.47
2023-02-26T11:57:01.775Z,102175.09
2023-02-26T12:02:16.025Z,102185.44
2023-02-26T12:07:28.174Z,102194.47
2023-02-26T12:13:20.685Z,102132.34
2023-02-26T12:18:37.306Z,102104.84
2023-02-26T12:24:10.106Z,102122.59
2023-02-26T12:29:30.365Z,102135.44
2023-02-26T12:35:24.184Z,102023.53
2023-02-26T12:40:52.667Z,102197.94
2023-02-26T12:46:05.906Z,102195.50
2023-02-26T12:51:24.457Z,101893.22
2023-02-26T12:56:53.905Z,102084.06
2023-02-26T13:02:25.000Z,101998.94
2023-02-26T13:07:52.455Z,102172.41
2023-02-26T13:13:14.953Z,102178.94
2023-02-26T13:18:24.633Z,102185.75
2023-02-26T13:23:39.344Z,101714.88
2023-02-26T13:28:53.626Z,101993.81
2023-02-26T13:35:58.906Z,101983.31
2023-02-26T13:40:24.329Z,102177.88
2023-02-26T13:45:49.890Z,102175.84
2023-02-26T14:06:36.047Z,102178.13
2023-02-26T14:12:39.133Z,101685.69
2023-02-26T14:18:38.796Z,102036.81
2023-02-26T14:24:12.682Z,102082.25
2023-02-26T14:41:53.719Z,102076.13
2023-02-26T14:47:39.966Z,101959.47
2023-02-26T15:00:24.677Z,101944.03
2023-02-26T15:05:49.294Z,101964.69
2023-02-26T15:17:23.819Z,101681.44
2023-02-26T15:23:13.453Z,101980.06
2023-02-26T15:28:40.322Z,101877.81
2023-02-26T15:34:14.688Z,101704.66
2023-02-26T15:41:50.805Z,102025.75
2023-02-26T15:46:14.972Z,101900.59
2023-02-26T15:51:47.735Z,101782.84
2023-02-26T15:57:05.989Z,102107.78
2023-02-26T16:03:14.627Z,102028.63
2023-02-26T16:08:58.917Z,101648.84
2023-02-26T16:15:07.189Z,101964.44
2023-02-26T16:35:48.691Z,102084.06
2023-02-26T16:41:02.339Z,102239.38
2023-02-26T16:46:07.762Z,102263.00
2023-02-26T16:51:16.647Z,102146.59
2023-02-26T16:56:22.126Z,101898.34
2023-02-26T17:01:27.850Z,102049.53
2023-02-26T17:06:49.246Z,102268.97
2023-02-26T17:12:04.701Z,102266.47
2023-02-26T17:17:17.087Z,102159.41
2023-02-26T17:22:48.675Z,102074.38
2023-02-26T17:28:35.740Z,102297.16
2023-02-26T17:33:49.882Z,101942.34
2023-02-26T17:39:19.818Z,101855.13
2023-02-26T17:44:26.691Z,102295.56
2023-02-26T17:55:18.682Z,102327.19
2023-02-26T18:00:44.531Z,101906.34
2023-02-26T18:06:15.904Z,101960.22
2023-02-26T18:17:32.153Z,101900.75
2023-02-26T18:22:39.619Z,102295.94
2023-02-26T18:27:46.440Z,102064.25
2023-02-26T18:33:10.333Z,101978.84
2023-02-26T18:52:31.351Z,101916.09
2023-02-26T19:04:56.882Z,101704.03
2023-02-26T19:10:57.385Z,102233.94
2023-02-26T19:16:26.912Z,102142.03
2023-02-26T19:21:50.162Z,102351.22
2023-02-26T19:26:56.049Z,101810.72
2023-02-26T19:32:22.240Z,101852.19
2023-02-26T19:37:26.952Z,102225.72
2023-02-26T19:42:30.032Z,102085.84
2023-02-26T19:47:37.071Z,102370.84
2023-02-26T19:52:44.626Z,102383.84
2023-02-26T20:13:43.169Z,102400.66
2023-02-26T20:31:55.293Z,101910.69
2023-02-26T20:36:59.248Z,102426.28
2023-02-26T20:42:02.517Z,102431.22
2023-02-26T20:47:06.782Z,102224.25
2023-02-26T20:52:10.104Z,102315.00
2023-02-26T20:57:13.390Z,102428.72
2023-02-26T21:02:20.538Z,102059.72
2023-02-26T21:07:23.349Z,102293.00
2023-02-26T21:12:28.324Z,102401.31
2023-02-26T21:17:33.440Z,102385.66
2023-02-26T21:22:36.602Z,102354.56
2023-02-26T21:27:39.791Z,102460.16
2023-02-26T21:32:44.518Z,102398.09
2023-02-26T21:37:50.092Z,102436.97
2023-02-26T21:42:53.026Z,102456.69
2023-02-26T21:47:57.504Z,102434.22
2023-02-26T21:53:01.038Z,102356.84
2023-02-26T21:58:03.913Z,102417.59
2023-02-26T22:03:08.070Z,102465.66
2023-02-26T22:08:11.634Z,102371.50
2023-02-26T22:13:14.644Z,102207.38
2023-02-26T22:18:18.892Z,102463.41
2023-02-26T22:23:21.620Z,102234.00
2023-02-26T22:28:24.339Z,102456.03
2023-02-26T22:33:28.793Z,102473.50
2023-02-26T22:38:31.553Z,102478.78
2023-02-26T22:43:34.793Z,102477.03
2023-02-26T22:49:15.643Z,102375.94
2023-02-26T22:54:18.534Z,102482.28
2023-02-26T22:59:21.260Z,102435.34
2023-02-26T23:04:25.284Z,102421.59
2023-02-26T23:09:28.283Z,102456.38
2023-02-26T23:14:31.165Z,102476.66
2023-02-26T23:19:35.334Z,102491.75
2023-02-26T23:24:38.097Z,102346.97
2023-02-26T23:29:43.593Z,102494.81
2023-02-26T23:34:47.628Z,102471.53
2023-02-26T23:39:50.347Z,102255.09
2023-02-26T23:44:53.026Z,102425.97
2023-02-26T23:50:00.181Z,102504.84
2023-02-26T23:55:02.939Z,102509.06
